Time;durP1;ratioP1;P1;durP2;ratioP2;P2;SDS_P1;SDS_P2;PMS_P1;PMS_P2;Temp;Humidity;BMP_temperature;BMP_pressure;BME280_temperature;BME280_humidity;BME280_pressure;Samples;Min_cycle;Max_cycle;Signal;HPM_P1;HPM_P2
2023/09/25 00:01:04;;;;;;;4.30;2.45;;;12.30;99.90;;;;;;5094916;28;20047;-89
2023/09/25 00:03:30;;;;;;;4.32;2.72;;;12.30;99.90;;;;;;5104586;27;20040;-89
2023/09/25 00:05:56;;;;;;;3.72;2.30;;;12.30;99.90;;;;;;5106464;28;20488;-89
2023/09/25 00:08:21;;;;;;;5.53;2.70;;;12.40;99.90;;;;;;5096074;28;20035;-88
2023/09/25 00:10:47;;;;;;;5.00;2.63;;;12.40;99.90;;;;;;5101786;27;20050;-89
2023/09/25 00:13:13;;;;;;;4.70;2.63;;;12.50;99.90;;;;;;5101251;28;20061;-88
2023/09/25 00:15:46;;;;;;;4.03;2.53;;;12.50;99.90;;;;;;5090669;28;20062;-87
2023/09/25 00:18:16;;;;;;;4.82;2.45;;;12.50;99.90;;;;;;5098686;28;20066;-89
2023/09/25 00:20:42;;;;;;;3.38;2.33;;;12.60;99.90;;;;;;5095457;28;20123;-89
2023/09/25 00:23:08;;;;;;;3.70;2.50;;;12.60;99.90;;;;;;5099833;27;20050;-89
2023/09/25 00:25:34;;;;;;;3.92;3.05;;;12.50;99.90;;;;;;5110814;27;20066;-88
2023/09/25 00:28:01;;;;;;;5.90;2.65;;;12.60;99.90;;;;;;5115148;27;20035;-89
2023/09/25 00:30:27;;;;;;;3.80;2.65;;;12.60;99.90;;;;;;5113595;27;20092;-88
2023/09/25 00:32:52;;;;;;;5.65;2.65;;;12.60;99.90;;;;;;5102313;27;20123;-89
2023/09/25 00:35:20;;;;;;;3.70;2.78;;;12.50;99.90;;;;;;5099334;27;20502;-89
2023/09/25 00:37:48;;;;;;;4.75;2.80;;;12.50;99.90;;;;;;5096828;27;20035;-88
2023/09/25 00:40:17;;;;;;;5.70;2.92;;;12.50;99.90;;;;;;5099502;27;20031;-88
2023/09/25 00:42:49;;;;;;;6.25;3.28;;;12.50;99.90;;;;;;5100930;27;20607;-89
2023/09/25 00:45:15;;;;;;;5.22;2.75;;;12.50;99.90;;;;;;5116763;27;20566;-89
2023/09/25 00:47:42;;;;;;;5.38;2.95;;;12.40;99.90;;;;;;5109496;27;20472;-88
2023/09/25 00:50:09;;;;;;;5.00;2.83;;;12.50;99.90;;;;;;5101308;27;20418;-88
2023/09/25 00:52:37;;;;;;;5.47;2.97;;;12.40;99.90;;;;;;5108658;27;20034;-88
2023/09/25 00:55:04;;;;;;;3.55;2.55;;;12.40;99.90;;;;;;5098821;27;20069;-88
2023/09/25 00:57:34;;;;;;;7.53;2.80;;;12.30;99.90;;;;;;5104416;27;20076;-88
2023/09/25 01:00:01;;;;;;;5.55;3.22;;;12.30;99.90;;;;;;5121087;27;20121;-89
2023/09/25 01:02:31;;;;;;;5.05;3.20;;;12.30;99.90;;;;;;5114856;27;20031;-88
2023/09/25 01:05:00;;;;;;;5.28;3.28;;;12.20;99.90;;;;;;5111686;27;20038;-90
2023/09/25 01:07:29;;;;;;;4.93;3.30;;;12.30;99.90;;;;;;5100062;27;20296;-89
2023/09/25 01:10:16;;;;;;;3.70;2.80;;;12.20;99.90;;;;;;5102947;27;20035;-89
2023/09/25 01:12:42;;;;;;;5.28;3.13;;;12.10;99.90;;;;;;5108838;27;20114;-89
2023/09/25 01:15:08;;;;;;;5.97;3.40;;;12.10;99.90;;;;;;5105082;27;20054;-89
2023/09/25 01:17:34;;;;;;;5.00;3.08;;;12.10;99.90;;;;;;5113429;27;20370;-88
2023/09/25 01:20:02;;;;;;;4.57;3.55;;;12.10;99.90;;;;;;5101206;27;20039;-89
2023/09/25 01:22:27;;;;;;;5.72;3.30;;;12.10;99.90;;;;;;5102007;27;20066;-89
2023/09/25 01:24:53;;;;;;;5.15;3.55;;;12.00;99.90;;;;;;5100974;27;20114;-89
2023/09/25 01:27:19;;;;;;;5.80;3.75;;;11.90;99.90;;;;;;5100756;27;20496;-87
2023/09/25 01:29:44;;;;;;;7.75;3.70;;;12.00;99.90;;;;;;5119674;27;20031;-89
2023/09/25 01:32:12;;;;;;;6.32;3.78;;;11.90;99.90;;;;;;5098590;27;20031;-89
2023/09/25 01:34:37;;;;;;;5.18;3.75;;;11.90;99.90;;;;;;5103194;27;20076;-89
2023/09/25 01:37:04;;;;;;;10.13;3.65;;;11.90;99.90;;;;;;5116851;27;20051;-89
2023/09/25 01:39:31;;;;;;;4.63;3.80;;;11.80;99.90;;;;;;5099429;27;20049;-89
2023/09/25 01:41:57;;;;;;;4.82;3.63;;;11.90;99.90;;;;;;5099364;27;20026;-89
2023/09/25 01:44:25;;;;;;;5.22;3.60;;;11.80;99.90;;;;;;5111496;27;20038;-89
2023/09/25 01:46:51;;;;;;;6.35;3.70;;;11.80;99.90;;;;;;5101281;27;20614;-89
2023/09/25 01:49:17;;;;;;;4.82;3.35;;;11.80;99.90;;;;;;5098849;27;20038;-89
2023/09/25 01:51:44;;;;;;;8.18;3.72;;;11.70;99.90;;;;;;5124857;27;20053;-88
2023/09/25 01:54:09;;;;;;;4.88;3.65;;;11.70;99.90;;;;;;5100875;27;20035;-89
2023/09/25 01:56:35;;;;;;;6.45;3.65;;;11.70;99.90;;;;;;5098774;27;20395;-90
2023/09/25 01:59:01;;;;;;;7.45;4.20;;;11.70;99.90;;;;;;5104009;27;20031;-88
2023/09/25 02:01:27;;;;;;;4.82;3.90;;;11.60;99.90;;;;;;5097337;27;20346;-89
2023/09/25 02:03:53;;;;;;;5.70;3.60;;;11.60;99.90;;;;;;5096787;27;20030;-89
2023/09/25 02:06:19;;;;;;;5.38;3.83;;;11.60;99.90;;;;;;5097815;27;20115;-89
2023/09/25 02:08:44;;;;;;;5.55;3.92;;;11.60;99.90;;;;;;5100554;27;20042;-88
2023/09/25 02:11:10;;;;;;;9.32;3.67;;;11.60;99.90;;;;;;5102838;27;20047;-88
2023/09/25 02:13:36;;;;;;;8.00;3.70;;;11.60;99.90;;;;;;5096649;27;20770;-88
2023/09/25 02:16:01;;;;;;;6.13;3.67;;;11.60;99.90;;;;;;5098472;27;20049;-89
2023/09/25 02:18:27;;;;;;;5.68;3.55;;;11.50;99.90;;;;;;5115341;27;20099;-89
2023/09/25 02:20:52;;;;;;;6.57;3.90;;;11.60;99.90;;;;;;5096023;27;20039;-89
2023/09/25 02:23:19;;;;;;;5.18;3.60;;;11.60;99.90;;;;;;5111552;27;20055;-89
2023/09/25 02:25:44;;;;;;;5.32;3.42;;;11.60;99.90;;;;;;5094526;27;20088;-89
2023/09/25 02:28:10;;;;;;;5.60;3.53;;;11.50;99.90;;;;;;5101267;27;20039;-89
2023/09/25 02:30:36;;;;;;;5.97;3.67;;;11.50;99.90;;;;;;5100477;27;20385;-89
2023/09/25 02:33:02;;;;;;;5.32;3.78;;;11.50;99.90;;;;;;5099517;27;20035;-89
2023/09/25 02:35:28;;;;;;;4.10;3.47;;;11.60;99.90;;;;;;5096644;27;20034;-89
2023/09/25 02:37:54;;;;;;;4.25;3.30;;;11.60;99.90;;;;;;5116122;27;20033;-89
2023/09/25 02:40:19;;;;;;;5.25;3.33;;;11.50;99.90;;;;;;5102232;27;20126;-87
2023/09/25 02:42:45;;;;;;;5.00;3.60;;;11.50;99.90;;;;;;5110618;27;20062;-89
2023/09/25 02:45:11;;;;;;;4.05;3.60;;;11.50;99.90;;;;;;5095965;27;20119;-89
2023/09/25 02:47:37;;;;;;;7.55;3.70;;;11.50;99.90;;;;;;5097296;27;20043;-89
2023/09/25 02:50:02;;;;;;;6.18;3.63;;;11.50;99.90;;;;;;5111526;27;20121;-89
2023/09/25 02:52:28;;;;;;;5.13;3.83;;;11.60;99.90;;;;;;5110110;27;20092;-88
2023/09/25 02:54:54;;;;;;;3.85;3.00;;;11.60;99.90;;;;;;5102170;27;20110;-88
2023/09/25 02:57:20;;;;;;;6.07;3.65;;;11.60;99.90;;;;;;5102163;27;20038;-89
2023/09/25 02:59:46;;;;;;;4.82;3.53;;;11.50;99.90;;;;;;5111220;27;20402;-88
2023/09/25 03:02:12;;;;;;;5.20;3.60;;;11.50;99.90;;;;;;5099287;27;20419;-89
2023/09/25 03:04:37;;;;;;;4.82;3.70;;;11.50;99.90;;;;;;5115436;27;20531;-89
2023/09/25 03:07:03;;;;;;;7.15;3.42;;;11.50;99.90;;;;;;5109008;27;20043;-88
2023/09/25 03:09:29;;;;;;;5.80;3.40;;;11.50;99.90;;;;;;5103470;27;20496;-89
2023/09/25 03:11:54;;;;;;;5.18;3.90;;;11.50;99.90;;;;;;5100223;27;20148;-89
2023/09/25 03:14:20;;;;;;;7.00;3.35;;;11.40;99.90;;;;;;5098556;27;20042;-89
2023/09/25 03:16:46;;;;;;;4.80;3.67;;;11.40;99.90;;;;;;5102477;27;20038;-90
2023/09/25 03:19:13;;;;;;;4.55;4.00;;;11.40;99.90;;;;;;5109147;27;20068;-89
2023/09/25 03:21:41;;;;;;;4.38;3.30;;;11.40;99.90;;;;;;5095364;27;20114;-88
2023/09/25 03:24:07;;;;;;;5.88;4.20;;;11.40;99.90;;;;;;5100268;27;20050;-89
2023/09/25 03:26:37;;;;;;;6.10;3.72;;;11.30;99.90;;;;;;5099314;27;20099;-89
2023/09/25 03:29:04;;;;;;;5.97;3.70;;;11.30;99.90;;;;;;5114982;27;20047;-88
2023/09/25 03:31:30;;;;;;;5.18;3.28;;;11.40;99.90;;;;;;5102450;27;20235;-89
2023/09/25 03:33:55;;;;;;;5.28;3.22;;;11.40;99.90;;;;;;5110490;27;20039;-89
2023/09/25 03:36:21;;;;;;;4.40;3.53;;;11.40;99.90;;;;;;5101094;27;20039;-89
2023/09/25 03:38:47;;;;;;;4.00;3.50;;;11.40;99.90;;;;;;5093226;27;20039;-88
2023/09/25 03:41:13;;;;;;;4.50;3.53;;;11.30;99.90;;;;;;5102496;27;20039;-89
2023/09/25 03:43:39;;;;;;;4.07;3.50;;;11.40;99.90;;;;;;5101022;27;20054;-89
2023/09/25 03:46:05;;;;;;;5.53;3.72;;;11.40;99.90;;;;;;5106516;27;20427;-89
2023/09/25 03:48:30;;;;;;;5.30;3.63;;;11.40;99.90;;;;;;5099317;27;20164;-89
2023/09/25 03:50:56;;;;;;;6.20;3.75;;;11.40;99.90;;;;;;5093653;27;20046;-88
2023/09/25 03:53:22;;;;;;;5.90;3.63;;;11.40;99.90;;;;;;5094629;27;20060;-88
2023/09/25 03:55:48;;;;;;;4.93;3.13;;;11.40;99.90;;;;;;5111682;28;20042;-89
2023/09/25 03:58:13;;;;;;;6.75;3.63;;;11.50;99.90;;;;;;5120047;27;20501;-88
2023/09/25 04:00:40;;;;;;;4.60;3.83;;;11.50;99.90;;;;;;5097911;27;20389;-89
2023/09/25 04:03:06;;;;;;;4.50;3.40;;;11.60;99.90;;;;;;5111498;27;20349;-88
2023/09/25 04:05:34;;;;;;;3.80;3.20;;;11.70;99.90;;;;;;5095129;27;20050;-88
2023/09/25 04:08:00;;;;;;;6.40;3.65;;;11.70;99.90;;;;;;5099596;27;20055;-89
2023/09/25 04:10:27;;;;;;;5.55;3.67;;;11.70;99.90;;;;;;5099206;27;20031;-88
2023/09/25 04:12:53;;;;;;;4.60;3.67;;;11.70;99.90;;;;;;5114164;27;20461;-89
2023/09/25 04:15:22;;;;;;;5.05;3.72;;;11.70;99.90;;;;;;5107490;27;20179;-89
2023/09/25 04:17:50;;;;;;;5.03;3.30;;;11.70;99.90;;;;;;5122123;27;20162;-89
2023/09/25 04:20:26;;;;;;;6.15;3.60;;;11.70;99.90;;;;;;5101115;27;20042;-89
2023/09/25 04:22:53;;;;;;;6.40;4.05;;;11.80;99.90;;;;;;5102571;27;20065;-89
2023/09/25 04:25:19;;;;;;;4.10;3.40;;;11.70;99.90;;;;;;5101910;27;20057;-88
2023/09/25 04:27:50;;;;;;;4.65;3.50;;;11.70;99.90;;;;;;5121469;27;20382;-89
2023/09/25 04:30:17;;;;;;;5.65;4.00;;;11.70;99.90;;;;;;5108381;27;20125;-89
2023/09/25 04:32:44;;;;;;;5.05;3.95;;;11.70;99.90;;;;;;5103637;27;20101;-89
2023/09/25 04:35:12;;;;;;;3.85;3.30;;;11.70;99.90;;;;;;5101000;27;20397;-89
2023/09/25 04:37:38;;;;;;;6.00;3.60;;;11.60;99.90;;;;;;5105597;27;20542;-89
2023/09/25 04:40:22;;;;;;;5.45;3.58;;;11.60;99.90;;;;;;5106060;27;20134;-89
2023/09/25 04:42:52;;;;;;;5.65;3.88;;;11.60;99.90;;;;;;5114184;27;20050;-89
2023/09/25 04:45:19;;;;;;;5.05;3.88;;;11.60;99.90;;;;;;5109514;27;20042;-89
2023/09/25 04:47:52;;;;;;;4.85;3.70;;;11.50;99.90;;;;;;5105046;27;20074;-89
2023/09/25 04:50:18;;;;;;;6.40;3.40;;;11.60;99.90;;;;;;5120086;27;20041;-89
2023/09/25 04:52:45;;;;;;;5.97;3.67;;;11.60;99.90;;;;;;5099778;27;20035;-89
2023/09/25 04:55:12;;;;;;;6.47;3.80;;;11.60;99.90;;;;;;5125018;27;20490;-89
2023/09/25 04:57:45;;;;;;;4.13;3.38;;;11.60;99.90;;;;;;5109301;27;20038;-89
2023/09/25 05:00:21;;;;;;;6.80;3.47;;;11.60;99.90;;;;;;5098347;27;20410;-89
2023/09/25 05:02:48;;;;;;;5.43;3.50;;;11.60;99.90;;;;;;5104959;27;20043;-88
2023/09/25 05:05:15;;;;;;;5.18;3.30;;;11.60;99.90;;;;;;5097210;27;20452;-89
2023/09/25 05:07:42;;;;;;;6.07;3.30;;;11.60;99.90;;;;;;5096369;27;20106;-89
2023/09/25 05:10:12;;;;;;;4.28;3.08;;;11.70;99.90;;;;;;5104135;27;20034;-89
2023/09/25 05:12:39;;;;;;;5.20;2.92;;;11.70;99.90;;;;;;5111872;27;20038;-89
2023/09/25 05:15:08;;;;;;;5.38;3.38;;;11.60;99.90;;;;;;5110933;27;20035;-88
2023/09/25 05:17:36;;;;;;;7.35;3.70;;;11.70;99.90;;;;;;5113474;27;20054;-89
2023/09/25 05:20:06;;;;;;;4.55;3.38;;;11.70;99.90;;;;;;5096873;27;20134;-89
2023/09/25 05:22:31;;;;;;;5.32;3.80;;;11.80;99.90;;;;;;5099280;27;20038;-89
2023/09/25 05:24:57;;;;;;;5.50;3.42;;;11.80;99.90;;;;;;5113608;27;20522;-89
2023/09/25 05:27:23;;;;;;;10.73;3.33;;;11.90;99.90;;;;;;5124839;27;20043;-88
2023/09/25 05:29:48;;;;;;;4.70;3.60;;;11.90;99.90;;;;;;5101520;27;20276;-89
2023/09/25 05:32:14;;;;;;;5.03;3.30;;;12.00;99.90;;;;;;5098262;27;20212;-89
2023/09/25 05:34:40;;;;;;;4.47;3.30;;;11.90;99.90;;;;;;5114552;27;20056;-89
2023/09/25 05:37:06;;;;;;;5.13;3.38;;;12.00;99.90;;;;;;5113559;27;20031;-89
2023/09/25 05:39:31;;;;;;;4.60;3.38;;;12.00;99.90;;;;;;5096763;27;20024;-89
2023/09/25 05:41:57;;;;;;;4.30;3.08;;;12.00;99.90;;;;;;5103087;27;20150;-88
2023/09/25 05:44:22;;;;;;;7.63;3.28;;;12.00;99.90;;;;;;5095264;27;20141;-89
2023/09/25 05:46:48;;;;;;;4.18;3.20;;;12.00;99.90;;;;;;5114756;27;20038;-89
2023/09/25 05:49:14;;;;;;;5.70;3.40;;;12.10;99.90;;;;;;5100126;27;20043;-89
2023/09/25 05:51:40;;;;;;;5.00;3.08;;;12.00;99.90;;;;;;5096551;27;20061;-89
2023/09/25 05:54:05;;;;;;;5.72;3.30;;;12.00;99.90;;;;;;5111978;27;20023;-89
2023/09/25 05:56:31;;;;;;;6.10;3.28;;;12.00;99.90;;;;;;5098007;27;20039;-89
2023/09/25 05:58:57;;;;;;;6.28;2.92;;;12.10;99.90;;;;;;5097349;27;20031;-89
2023/09/25 06:01:22;;;;;;;5.07;2.80;;;12.10;99.90;;;;;;5097702;27;20044;-89
2023/09/25 06:03:49;;;;;;;6.97;3.42;;;12.20;99.90;;;;;;5113459;27;20046;-89
2023/09/25 06:06:15;;;;;;;9.27;3.45;;;12.20;99.90;;;;;;5101147;27;20038;-89
2023/09/25 06:08:41;;;;;;;4.82;3.25;;;12.20;99.90;;;;;;5098102;27;20038;-89
2023/09/25 06:11:06;;;;;;;3.50;3.00;;;12.20;99.90;;;;;;5110410;27;20150;-89
2023/09/25 06:13:32;;;;;;;6.10;3.10;;;12.20;99.90;;;;;;5101174;27;20074;-88
2023/09/25 06:15:58;;;;;;;5.30;3.20;;;12.30;99.90;;;;;;5112635;27;20067;-89
2023/09/25 06:18:23;;;;;;;4.13;3.03;;;12.30;99.90;;;;;;5109406;27;20433;-88
2023/09/25 06:20:50;;;;;;;5.15;3.28;;;12.30;99.90;;;;;;5114530;27;20070;-89
2023/09/25 06:23:16;;;;;;;5.72;3.08;;;12.40;99.90;;;;;;5094551;27;20569;-89
2023/09/25 06:25:44;;;;;;;3.28;2.88;;;12.40;99.90;;;;;;5097139;28;20035;-89
2023/09/25 06:28:11;;;;;;;4.05;2.80;;;12.40;99.90;;;;;;5110536;27;20036;-89
2023/09/25 06:30:37;;;;;;;4.15;2.90;;;12.50;99.90;;;;;;5115167;27;20528;-89
2023/09/25 06:33:03;;;;;;;3.67;2.80;;;12.60;99.90;;;;;;5104145;27;20226;-89
2023/09/25 06:35:28;;;;;;;7.93;3.13;;;12.60;99.90;;;;;;5107793;27;20055;-88
2023/09/25 06:37:54;;;;;;;4.18;2.97;;;12.70;99.90;;;;;;5091739;28;20054;-89
2023/09/25 06:40:23;;;;;;;4.70;2.60;;;12.70;99.90;;;;;;5108185;27;20081;-88
2023/09/25 06:42:53;;;;;;;5.00;2.70;;;12.80;99.90;;;;;;5111457;27;20086;-89
2023/09/25 06:45:21;;;;;;;4.65;2.95;;;12.80;99.90;;;;;;5092102;27;20070;-89
2023/09/25 06:47:47;;;;;;;4.28;2.65;;;12.90;99.90;;;;;;5093577;28;20043;-88
2023/09/25 06:50:13;;;;;;;4.38;2.78;;;13.00;99.90;;;;;;5095481;27;20043;-88
2023/09/25 06:52:40;;;;;;;4.25;2.70;;;13.00;99.90;;;;;;5105483;27;20039;-89
2023/09/25 06:55:06;;;;;;;6.30;3.10;;;13.00;99.90;;;;;;5095372;28;20080;-89
2023/09/25 06:57:32;;;;;;;3.95;2.40;;;13.10;99.90;;;;;;5091139;27;20280;-90
2023/09/25 06:59:57;;;;;;;4.88;2.75;;;13.10;99.90;;;;;;5099751;28;20126;-89
2023/09/25 07:02:25;;;;;;;5.22;2.70;;;13.20;99.90;;;;;;5092380;27;20044;-89
2023/09/25 07:04:50;;;;;;;4.20;2.65;;;13.20;99.90;;;;;;5108182;27;20643;-89
2023/09/25 07:07:16;;;;;;;5.65;3.10;;;13.20;99.90;;;;;;5092812;27;20036;-89
2023/09/25 07:09:42;;;;;;;5.38;3.13;;;13.30;99.90;;;;;;5097366;27;20045;-89
2023/09/25 07:12:08;;;;;;;5.30;2.80;;;13.30;99.90;;;;;;5097770;28;20448;-89
2023/09/25 07:14:34;;;;;;;4.43;2.50;;;13.40;99.90;;;;;;5096982;27;20692;-89
2023/09/25 07:17:02;;;;;;;3.08;2.58;;;13.40;99.90;;;;;;5093881;28;20243;-89
2023/09/25 07:19:28;;;;;;;4.53;2.55;;;13.50;99.90;;;;;;5108664;28;20035;-89
2023/09/25 07:21:54;;;;;;;3.65;2.33;;;13.50;99.90;;;;;;5090571;28;20050;-89
2023/09/25 07:24:25;;;;;;;4.63;2.63;;;13.60;99.90;;;;;;5093757;27;20054;-89
2023/09/25 07:26:51;;;;;;;4.28;2.63;;;13.70;99.90;;;;;;5097770;28;20419;-89
2023/09/25 07:29:21;;;;;;;4.47;2.78;;;13.70;99.90;;;;;;5096132;28;20043;-88
2023/09/25 07:31:46;;;;;;;6.18;2.67;;;13.80;99.90;;;;;;5096406;28;20479;-89
2023/09/25 07:34:13;;;;;;;4.07;2.28;;;13.90;99.90;;;;;;5095320;28;20079;-89
2023/09/25 07:36:40;;;;;;;4.63;2.58;;;14.00;99.90;;;;;;5090740;28;20031;-89
2023/09/25 07:39:13;;;;;;;5.00;3.05;;;14.10;99.90;;;;;;5109018;27;20086;-89
2023/09/25 07:41:39;;;;;;;3.67;2.40;;;14.10;99.90;;;;;;5097480;27;20098;-90
2023/09/25 07:44:08;;;;;;;4.95;2.53;;;14.20;99.90;;;;;;5097926;27;20127;-90
2023/09/25 07:46:33;;;;;;;3.95;2.40;;;14.20;99.90;;;;;;5101760;27;20039;-89
2023/09/25 07:48:59;;;;;;;4.18;2.67;;;14.40;99.90;;;;;;5097732;28;20100;-89
2023/09/25 07:51:29;;;;;;;3.97;2.60;;;14.50;99.90;;;;;;5108351;27;20163;-88
2023/09/25 07:53:58;;;;;;;4.80;2.67;;;14.60;99.90;;;;;;5095779;27;20104;-89
2023/09/25 07:56:27;;;;;;;4.97;2.55;;;14.70;99.90;;;;;;5093926;27;20318;-90
2023/09/25 07:58:55;;;;;;;3.72;2.65;;;14.90;99.90;;;;;;5103432;27;20031;-88
2023/09/25 08:01:22;;;;;;;3.88;2.40;;;15.00;99.90;;;;;;5097963;27;20110;-89
2023/09/25 08:03:51;;;;;;;5.38;2.70;;;15.10;99.90;;;;;;5095448;28;20047;-89
2023/09/25 08:06:19;;;;;;;4.25;2.40;;;15.20;99.90;;;;;;5095131;27;20074;-89
2023/09/25 08:08:45;;;;;;;4.50;2.60;;;15.30;99.90;;;;;;5099363;27;20734;-89
2023/09/25 08:11:14;;;;;;;3.45;2.80;;;15.40;99.90;;;;;;5098950;27;20092;-89
2023/09/25 08:13:43;;;;;;;4.57;2.33;;;15.50;99.90;;;;;;5098612;27;20118;-89
2023/09/25 08:16:09;;;;;;;3.47;2.50;;;15.70;99.90;;;;;;5108331;27;20080;-90
2023/09/25 08:18:37;;;;;;;6.03;2.40;;;15.70;99.90;;;;;;5098891;27;20035;-90
2023/09/25 08:21:04;;;;;;;4.32;3.05;;;15.70;99.90;;;;;;5097827;27;20119;-89
2023/09/25 08:23:30;;;;;;;3.28;2.20;;;15.70;99.90;;;;;;5110478;27;20344;-90
2023/09/25 08:25:56;;;;;;;3.72;2.33;;;15.90;99.90;;;;;;5113094;27;20087;-90
2023/09/25 08:28:22;;;;;;;5.80;2.63;;;15.90;99.90;;;;;;5099182;28;20047;-89
2023/09/25 08:30:49;;;;;;;3.88;2.10;;;15.90;99.90;;;;;;5097689;27;20051;-90
2023/09/25 08:33:17;;;;;;;6.47;2.38;;;16.00;99.90;;;;;;5101155;27;20290;-89
2023/09/25 08:35:43;;;;;;;4.70;2.45;;;16.10;99.90;;;;;;5106733;27;20123;-89
2023/09/25 08:38:09;;;;;;;4.22;2.17;;;16.10;99.90;;;;;;5110030;27;20118;-89
2023/09/25 08:40:37;;;;;;;4.65;2.22;;;16.20;99.90;;;;;;5098521;27;20040;-89
2023/09/25 08:43:05;;;;;;;2.88;2.00;;;16.30;99.90;;;;;;5099086;27;20051;-89
2023/09/25 08:45:31;;;;;;;5.05;2.50;;;16.30;99.90;;;;;;5109517;27;20501;-89
2023/09/25 08:47:57;;;;;;;5.57;2.45;;;16.20;99.90;;;;;;5094212;28;20043;-89
2023/09/25 08:50:23;;;;;;;4.93;2.38;;;16.40;99.90;;;;;;5111408;27;20100;-89
2023/09/25 08:52:48;;;;;;;5.28;1.95;;;16.40;99.90;;;;;;5095412;27;20589;-88
2023/09/25 08:55:14;;;;;;;3.78;2.40;;;16.40;99.90;;;;;;5110193;27;20039;-89
2023/09/25 08:57:41;;;;;;;3.58;2.20;;;16.60;99.90;;;;;;5098700;28;20201;-89
2023/09/25 09:00:11;;;;;;;4.43;2.30;;;16.60;99.90;;;;;;5099332;27;20039;-89
2023/09/25 09:02:40;;;;;;;4.80;2.45;;;16.90;99.90;;;;;;5117251;27;20039;-89
2023/09/25 09:05:07;;;;;;;3.45;2.05;;;17.00;99.90;;;;;;5096836;27;20039;-89
2023/09/25 09:07:33;;;;;;;3.85;2.33;;;17.10;99.90;;;;;;5095289;27;20043;-90
2023/09/25 09:09:59;;;;;;;4.30;2.22;;;16.90;99.90;;;;;;5109684;27;20084;-89
2023/09/25 09:12:24;;;;;;;3.92;2.00;;;16.90;99.90;;;;;;5108191;27;20126;-89
2023/09/25 09:14:50;;;;;;;2.85;2.10;;;17.10;99.90;;;;;;5102543;27;20474;-89
2023/09/25 09:17:16;;;;;;;3.03;1.92;;;17.30;99.90;;;;;;5093518;27;20071;-90
2023/09/25 09:19:48;;;;;;;2.78;1.85;;;17.40;99.90;;;;;;5094176;27;20031;-89
2023/09/25 09:22:16;;;;;;;4.70;2.33;;;17.40;99.90;;;;;;5108096;27;20080;-89
2023/09/25 09:24:43;;;;;;;3.97;2.17;;;17.60;99.90;;;;;;5093588;27;20069;-89
2023/09/25 09:27:09;;;;;;;4.05;1.77;;;17.70;99.90;;;;;;5110548;27;20044;-89
2023/09/25 09:29:41;;;;;;;4.63;1.92;;;17.90;99.90;;;;;;5100528;27;20126;-89
2023/09/25 09:32:08;;;;;;;2.50;1.85;;;18.00;99.90;;;;;;5097277;28;20193;-89
2023/09/25 09:34:34;;;;;;;3.25;1.77;;;18.10;99.90;;;;;;5107570;27;20047;-90
2023/09/25 09:37:00;;;;;;;3.35;1.90;;;18.00;99.90;;;;;;5094259;27;20039;-89
2023/09/25 09:39:26;;;;;;;3.88;1.67;;;18.10;99.90;;;;;;5096002;27;20625;-89
2023/09/25 09:41:53;;;;;;;3.10;2.05;;;18.20;99.90;;;;;;5091580;27;20092;-88
2023/09/25 09:44:20;;;;;;;6.25;2.25;;;18.30;99.90;;;;;;5114232;27;20104;-89
2023/09/25 09:46:47;;;;;;;2.55;1.92;;;18.40;99.90;;;;;;5118224;27;20043;-89
2023/09/25 09:49:20;;;;;;;3.70;1.90;;;18.50;99.90;;;;;;5092852;27;20104;-89
2023/09/25 09:51:51;;;;;;;5.13;2.05;;;18.60;99.90;;;;;;5098230;27;20077;-89
2023/09/25 09:54:19;;;;;;;2.70;1.90;;;18.70;99.90;;;;;;5109908;27;20224;-90
2023/09/25 09:56:48;;;;;;;4.88;2.00;;;18.70;99.90;;;;;;5092776;27;20078;-89
2023/09/25 09:59:18;;;;;;;4.43;1.80;;;18.80;99.90;;;;;;5103357;27;20135;-90
2023/09/25 10:01:50;;;;;;;2.30;1.70;;;19.00;99.90;;;;;;5097875;27;20567;-89
2023/09/25 10:04:16;;;;;;;5.45;2.10;;;18.90;99.90;;;;;;5110277;27;20039;-89
2023/09/25 10:06:52;;;;;;;2.72;1.70;;;18.90;99.90;;;;;;5101418;27;20040;-89
2023/09/25 10:09:18;;;;;;;3.70;1.65;;;19.00;99.90;;;;;;5095373;28;20145;-89
2023/09/25 10:11:48;;;;;;;3.47;1.83;;;19.00;99.90;;;;;;5098097;27;20051;-89
2023/09/25 10:14:23;;;;;;;2.95;1.70;;;19.00;99.90;;;;;;5091656;27;20201;-90
2023/09/25 10:16:59;;;;;;;4.40;1.70;;;18.90;99.90;;;;;;5095789;27;20467;-89
2023/09/25 10:19:40;;;;;;;3.47;1.70;;;19.00;99.90;;;;;;5111680;27;20058;-89
2023/09/25 10:22:30;;;;;;;2.67;1.75;;;19.10;99.90;;;;;;5099193;28;20039;-88
2023/09/25 10:25:11;;;;;;;3.95;1.73;;;19.10;99.90;;;;;;5100939;27;20352;-89
2023/09/25 10:27:37;;;;;;;3.17;1.92;;;19.20;99.90;;;;;;5093001;28;20047;-90
2023/09/25 10:30:14;;;;;;;4.80;2.05;;;19.40;99.90;;;;;;5092554;27;20405;-89
2023/09/25 10:32:42;;;;;;;2.60;1.83;;;19.40;99.90;;;;;;5098784;27;20034;-89
2023/09/25 10:35:36;;;;;;;5.43;1.90;;;19.50;99.90;;;;;;5094383;27;20181;-89
2023/09/25 10:38:25;;;;;;;3.05;2.05;;;19.50;99.90;;;;;;5096410;27;20032;-89
2023/09/25 10:40:54;;;;;;;2.50;1.50;;;19.70;99.90;;;;;;5095557;27;20475;-89
2023/09/25 10:43:21;;;;;;;4.78;2.00;;;19.90;99.90;;;;;;5094922;27;20533;-90
2023/09/25 10:45:48;;;;;;;2.60;1.90;;;19.80;99.90;;;;;;5092251;28;20039;-90
2023/09/25 10:48:14;;;;;;;2.67;2.03;;;19.80;99.90;;;;;;5094003;27;20045;-89
2023/09/25 10:50:43;;;;;;;5.57;2.00;;;20.00;99.90;;;;;;5092789;28;20111;-89
2023/09/25 10:53:09;;;;;;;3.30;2.10;;;20.10;99.90;;;;;;5093077;27;20047;-89
2023/09/25 10:55:36;;;;;;;3.83;1.98;;;20.00;99.90;;;;;;5108969;27;20390;-88
2023/09/25 10:58:06;;;;;;;5.00;1.98;;;20.30;99.90;;;;;;5102781;27;20331;-89
2023/09/25 11:00:35;;;;;;;3.88;1.95;;;20.30;99.90;;;;;;5103202;27;20028;-89
2023/09/25 11:03:02;;;;;;;6.50;2.03;;;20.40;99.90;;;;;;5109191;27;20042;-90
2023/09/25 11:05:29;;;;;;;2.60;1.73;;;20.70;99.90;;;;;;5096464;28;20481;-89
2023/09/25 11:07:55;;;;;;;3.67;1.75;;;20.80;99.90;;;;;;5091348;28;20043;-89
2023/09/25 11:10:21;;;;;;;4.55;2.10;;;20.80;99.90;;;;;;5094919;27;20038;-89
2023/09/25 11:12:47;;;;;;;2.85;1.70;;;20.60;99.90;;;;;;5105178;27;20494;-89
2023/09/25 11:15:22;;;;;;;3.00;1.63;;;20.70;99.90;;;;;;5092837;28;20144;-88
2023/09/25 11:17:48;;;;;;;3.03;1.70;;;21.00;99.90;;;;;;5104718;27;20157;-88
2023/09/25 11:20:29;;;;;;;2.72;1.50;;;21.10;99.90;;;;;;5103392;28;20047;-88
2023/09/25 11:23:03;;;;;;;3.35;1.80;;;21.30;99.90;;;;;;5094741;27;20066;-89
2023/09/25 11:25:32;;;;;;;2.67;1.67;;;21.30;99.90;;;;;;5111092;27;20047;-89
2023/09/25 11:27:58;;;;;;;2.85;1.70;;;21.50;99.90;;;;;;5092871;28;20032;-89
2023/09/25 11:30:30;;;;;;;2.63;1.90;;;21.50;99.90;;;;;;5111614;28;20423;-89
2023/09/25 11:32:56;;;;;;;4.07;1.77;;;21.40;99.90;;;;;;5096322;28;20027;-89
2023/09/25 11:35:22;;;;;;;2.80;1.73;;;21.50;99.90;;;;;;5095200;28;20039;-89
2023/09/25 11:37:58;;;;;;;4.72;2.15;;;21.70;99.90;;;;;;5087540;28;20035;-89
2023/09/25 11:40:25;;;;;;;2.80;1.70;;;21.90;99.90;;;;;;5098779;28;20040;-89
2023/09/25 11:42:51;;;;;;;2.95;1.83;;;21.80;99.90;;;;;;5089422;28;20031;-88
2023/09/25 11:45:17;;;;;;;3.05;1.45;;;22.30;99.90;;;;;;5096861;28;20061;-88
2023/09/25 11:47:43;;;;;;;2.75;1.50;;;22.60;99.90;;;;;;5097184;28;20051;-88
2023/09/25 11:50:11;;;;;;;2.92;1.90;;;22.50;99.90;;;;;;5095256;28;20303;-88
2023/09/25 11:52:41;;;;;;;3.60;1.60;;;22.30;99.90;;;;;;5106559;28;20163;-88
2023/09/25 11:55:11;;;;;;;3.42;1.88;;;22.30;99.90;;;;;;5097387;28;20046;-90
2023/09/25 11:57:38;;;;;;;2.50;1.50;;;22.20;99.90;;;;;;5094554;28;20071;-88
2023/09/25 12:00:11;;;;;;;3.53;2.05;;;22.00;99.90;;;;;;5105437;27;20275;-90
2023/09/25 12:02:37;;;;;;;3.10;1.92;;;22.00;99.90;;;;;;5094907;28;20039;-89
2023/09/25 12:05:06;;;;;;;2.38;1.52;;;21.90;99.90;;;;;;5091324;28;20402;-89
2023/09/25 12:07:36;;;;;;;3.25;1.70;;;21.90;99.90;;;;;;5091625;27;20050;-88
2023/09/25 12:10:05;;;;;;;2.25;1.90;;;22.20;99.90;;;;;;5093961;28;20056;-88
2023/09/25 12:12:35;;;;;;;3.15;1.63;;;22.10;99.90;;;;;;5099729;28;20568;-88
2023/09/25 12:15:05;;;;;;;3.05;1.52;;;22.10;99.90;;;;;;5093458;28;20093;-89
2023/09/25 12:17:32;;;;;;;6.40;1.77;;;22.40;99.90;;;;;;5106084;27;20427;-89
2023/09/25 12:20:00;;;;;;;2.63;1.63;;;22.30;99.90;;;;;;5095806;28;20038;-88
2023/09/25 12:22:26;;;;;;;2.85;1.50;;;22.20;99.90;;;;;;5091914;28;20409;-90
2023/09/25 12:24:54;;;;;;;3.08;1.98;;;22.30;99.90;;;;;;5104517;27;20085;-89
2023/09/25 12:27:20;;;;;;;3.85;1.80;;;22.10;99.90;;;;;;5110258;27;20789;-87
2023/09/25 12:29:45;;;;;;;2.70;1.60;;;22.30;99.90;;;;;;5097518;27;20099;-88
2023/09/25 12:32:11;;;;;;;3.67;1.80;;;22.60;99.90;;;;;;5080811;27;20047;-89
2023/09/25 12:34:38;;;;;;;2.78;1.70;;;22.60;99.90;;;;;;5109043;27;20126;-88
2023/09/25 12:37:04;;;;;;;3.42;2.08;;;22.50;99.90;;;;;;5101764;27;20119;-88
2023/09/25 12:39:30;;;;;;;4.38;2.08;;;22.60;99.90;;;;;;5093366;27;20175;-88
2023/09/25 12:41:56;;;;;;;2.90;1.77;;;22.20;99.90;;;;;;5110918;27;20071;-88
2023/09/25 12:44:21;;;;;;;2.65;1.75;;;22.20;99.90;;;;;;5095623;27;20044;-88
2023/09/25 12:46:47;;;;;;;3.88;1.70;;;22.20;99.90;;;;;;5101108;27;20289;-88
2023/09/25 12:49:13;;;;;;;6.70;1.73;;;22.10;99.90;;;;;;5116261;27;20272;-88